Cross Plains, IN (47017)

8:37 AM EST on February 06, 2016 (GMT -0500)
Cross Plains 1 | | Change Station
CLOSE
Current Station
Personal Weather Station
Location: Cross Plains, IN
Elevation: 906 ft
Nearby Weather Stations

Elev 906 ft 38.94 °N, 85.21 °W | Updated 8 minutes ago

Clear
Clear
15.5 °F
Feels Like 15 °F
N
0.0
Wind Variable Wind from SSW

Today
High -- | Low -- °F
--% Chance of Precip.
Yesterday
High -- | Low -- °F
Precip. -- in
Pressure 30.36 in
Visibility 3.0 miles
Clouds Few 22000 ft
Windchill 15 °F
Dew Point 13 °F
Humidity 91%
Rainfall 0.00 in
Snow Depth Not available.
7:42 AM 6:07 PM
Waning Crescent, 5% visible
METAR KCVG 061247Z 00000KT 3SM BR FEW220 M06/M06 A3034 RMK AO2 SLP281 T10561061 $
Pressure 30.36 in
Visibility 3.0 miles
Clouds Few 22000 ft
Windchill 15 °F
Dew Point 13 °F
Humidity 91%
Rainfall 0.00 in
Snow Depth Not available.
7:42 AM 6:07 PM
Waning Crescent, 5% visible
METAR KCVG 061247Z 00000KT 3SM BR FEW220 M06/M06 A3034 RMK AO2 SLP281 T10561061 $

10-Day Weather Forecast

Almanac

Astronomy

Feb. 06, 2016 Rise Set
Actual Time
Civil Twilight
Nautical Twilight
Astronomical Twilight
Moon
Length of Visible Light
Length of Day
Tomorrow will be .
, % of the Moon is Illuminated

Today's Extremes

State Highs State Lows

Community

WunderPhotos

Upload Photos

1,890,971 photos uploaded!

WunderBlog® & News

Nearby

Air Quality

  Air Quality AQ Index Pollutant
Not available.

Snow Depth

Station Depth Elevation

Earthquake Activity

City Distance Mag. Time & Date
Minimum magnitude displayed is 2.5.

Coastal Water Temperatures

Place Temperature

Stations

Nearby Weather Stations

Station Location Temp. Windchill Dew Point Humidity Wind Precip. Elev Updated Type
                   

Watches & Warnings

There are currently no watches in effect.